Time;durP1;ratioP1;P1;durP2;ratioP2;P2;SDS_P1;SDS_P2;PMS_P1;PMS_P2;Temp;Humidity;BMP_temperature;BMP_pressure;BME280_temperature;BME280_humidity;BME280_pressure;Samples;Min_cycle;Max_cycle;Signal;HPM_P1;HPM_P2
2023/08/07 00:02:18;;;;;;;9.40;6.80;;;;;;;-128.00;-1.00;-1.00;102853;1256;1004415;-73
2023/08/07 00:04:46;;;;;;;11.60;7.60;;;;;;;-128.00;-1.00;-1.00;102748;1257;1004919;-74
2023/08/07 00:07:13;;;;;;;9.20;7.20;;;;;;;-128.00;-1.00;-1.00;102147;1256;1004467;-76
2023/08/07 00:09:41;;;;;;;11.30;7.60;;;;;;;-128.00;-1.00;-1.00;101946;1258;1004948;-73
2023/08/07 00:12:09;;;;;;;9.50;7.40;;;;;;;-128.00;-1.00;-1.00;101960;1260;1004468;-75
2023/08/07 00:14:36;;;;;;;9.30;7.60;;;;;;;-128.00;-1.00;-1.00;102009;1257;1003559;-76
2023/08/07 00:17:05;;;;;;;9.20;8.30;;;;;;;-128.00;-1.00;-1.00;102016;1257;1004618;-76
2023/08/07 00:19:33;;;;;;;9.50;8.50;;;;;;;-128.00;-1.00;-1.00;102018;1257;1059158;-75
2023/08/07 00:22:00;;;;;;;8.90;7.80;;;;;;;-128.00;-1.00;-1.00;101882;1257;1005754;-75
2023/08/07 00:24:28;;;;;;;8.90;8.10;;;;;;;-128.00;-1.00;-1.00;101968;1257;1005073;-76
2023/08/07 00:26:55;;;;;;;11.50;8.00;;;;;;;-128.00;-1.00;-1.00;101929;1260;1004509;-75
2023/08/07 00:29:23;;;;;;;11.50;8.50;;;;;;;-128.00;-1.00;-1.00;102022;1256;1003850;-78
2023/08/07 00:31:50;;;;;;;9.30;8.10;;;;;;;-128.00;-1.00;-1.00;102540;1256;1005291;-77
2023/08/07 00:34:18;;;;;;;10.60;8.00;;;;;;;-128.00;-1.00;-1.00;102775;1257;1004821;-76
2023/08/07 00:36:45;;;;;;;8.80;8.00;;;;;;;-128.00;-1.00;-1.00;102247;1257;1004411;-77
2023/08/07 00:39:13;;;;;;;8.60;7.20;;;;;;;-128.00;-1.00;-1.00;102071;1260;1004976;-78
2023/08/07 00:41:40;;;;;;;9.60;7.70;;;;;;;-128.00;-1.00;-1.00;102102;1257;1004552;-77
2023/08/07 00:44:08;;;;;;;10.10;9.10;;;;;;;-128.00;-1.00;-1.00;102056;1257;1004662;-75
2023/08/07 00:46:36;;;;;;;12.90;8.60;;;;;;;-128.00;-1.00;-1.00;101939;1260;1007150;-75
2023/08/07 00:49:03;;;;;;;9.50;8.40;;;;;;;-128.00;-1.00;-1.00;101745;1263;1006139;-75
2023/08/07 00:51:33;;;;;;;8.90;7.90;;;;;;;-128.00;-1.00;-1.00;101948;1257;1046680;-77
2023/08/07 00:54:00;;;;;;;8.50;7.70;;;;;;;-128.00;-1.00;-1.00;102130;1257;1004388;-76
2023/08/07 00:56:28;;;;;;;13.20;8.90;;;;;;;-128.00;-1.00;-1.00;101781;1257;1005208;-76
2023/08/07 00:58:57;;;;;;;9.40;7.50;;;;;;;-128.00;-1.00;-1.00;101878;1257;1003895;-74
2023/08/07 01:01:26;;;;;;;9.60;8.50;;;;;;;-128.00;-1.00;-1.00;101903;1257;1048463;-76
2023/08/07 01:03:54;;;;;;;10.50;8.90;;;;;;;-128.00;-1.00;-1.00;102407;1256;1003696;-72
2023/08/07 01:06:21;;;;;;;10.50;9.00;;;;;;;-128.00;-1.00;-1.00;102857;1259;1004617;-75
2023/08/07 01:08:49;;;;;;;18.20;8.70;;;;;;;-128.00;-1.00;-1.00;102927;1257;1003902;-74
2023/08/07 01:11:26;;;;;;;9.80;8.10;;;;;;;-128.00;-1.00;-1.00;103112;1256;1004667;-75
2023/08/07 01:14:00;;;;;;;10.90;8.60;;;;;;;-128.00;-1.00;-1.00;103048;1260;1047341;-77
2023/08/07 01:16:42;;;;;;;13.10;9.00;;;;;;;-128.00;-1.00;-1.00;102766;1257;1050295;-78
2023/08/07 01:19:26;;;;;;;9.70;8.80;;;;;;;-128.00;-1.00;-1.00;101998;1262;1060868;-75
2023/08/07 01:22:05;;;;;;;11.10;9.10;;;;;;;-128.00;-1.00;-1.00;101972;1257;1057122;-77
2023/08/07 01:24:34;;;;;;;10.70;8.80;;;;;;;-128.00;-1.00;-1.00;102221;1257;1058060;-75
2023/08/07 01:27:17;;;;;;;8.90;8.10;;;;;;;-128.00;-1.00;-1.00;101945;1257;1003884;-75
2023/08/07 01:29:59;;;;;;;10.90;8.80;;;;;;;-128.00;-1.00;-1.00;102093;1257;1047555;-76
2023/08/07 01:32:43;;;;;;;10.50;8.30;;;;;;;-128.00;-1.00;-1.00;102244;1257;1062953;-79
2023/08/07 01:35:11;;;;;;;9.50;8.60;;;;;;;-128.00;-1.00;-1.00;102295;1260;1058346;-74
2023/08/07 01:37:40;;;;;;;10.60;9.50;;;;;;;-128.00;-1.00;-1.00;102034;1256;1004183;-76
2023/08/07 01:40:09;;;;;;;10.40;9.40;;;;;;;-128.00;-1.00;-1.00;102076;1257;1048275;-73
2023/08/07 01:42:36;;;;;;;10.60;8.60;;;;;;;-128.00;-1.00;-1.00;102001;1256;1003957;-76
2023/08/07 01:45:05;;;;;;;12.50;8.70;;;;;;;-128.00;-1.00;-1.00;102265;1257;1003782;-79
2023/08/07 01:47:32;;;;;;;12.80;8.90;;;;;;;-128.00;-1.00;-1.00;102209;1262;1004985;-79
2023/08/07 01:50:00;;;;;;;9.60;8.60;;;;;;;-128.00;-1.00;-1.00;103788;1256;1005478;-77
2023/08/07 01:52:27;;;;;;;11.10;9.00;;;;;;;-128.00;-1.00;-1.00;102668;1256;1006714;-76
2023/08/07 01:54:55;;;;;;;10.00;9.00;;;;;;;-128.00;-1.00;-1.00;102140;1256;1005208;-77
2023/08/07 01:57:22;;;;;;;10.50;8.60;;;;;;;-128.00;-1.00;-1.00;102220;1255;1004177;-77
2023/08/07 01:59:50;;;;;;;10.80;9.80;;;;;;;-128.00;-1.00;-1.00;101940;1257;1004058;-78
2023/08/07 02:02:17;;;;;;;9.90;8.90;;;;;;;-128.00;-1.00;-1.00;102028;1256;1003757;-79
2023/08/07 02:04:45;;;;;;;10.20;9.20;;;;;;;-128.00;-1.00;-1.00;101900;1260;1006090;-79
2023/08/07 02:07:12;;;;;;;10.00;9.10;;;;;;;-128.00;-1.00;-1.00;101838;1258;1004268;-80
2023/08/07 02:09:40;;;;;;;13.80;9.50;;;;;;;-128.00;-1.00;-1.00;102001;1259;1004440;-80
2023/08/07 02:12:08;;;;;;;9.60;8.70;;;;;;;-128.00;-1.00;-1.00;101946;1261;1004560;-80
2023/08/07 02:14:35;;;;;;;10.90;9.50;;;;;;;-128.00;-1.00;-1.00;102201;1257;1005392;-76
2023/08/07 02:17:03;;;;;;;12.10;9.20;;;;;;;-128.00;-1.00;-1.00;102112;1257;1005292;-80
2023/08/07 02:19:31;;;;;;;10.00;9.00;;;;;;;-128.00;-1.00;-1.00;102097;1257;1005246;-77
2023/08/07 02:21:58;;;;;;;10.50;8.60;;;;;;;-128.00;-1.00;-1.00;102418;1257;1004145;-80
2023/08/07 02:24:26;;;;;;;10.40;9.30;;;;;;;-128.00;-1.00;-1.00;103323;1260;1004415;-79
2023/08/07 02:26:53;;;;;;;11.10;9.70;;;;;;;-128.00;-1.00;-1.00;102349;1257;1004381;-81
2023/08/07 02:29:21;;;;;;;11.70;9.20;;;;;;;-128.00;-1.00;-1.00;102428;1260;1007567;-77
2023/08/07 02:31:49;;;;;;;12.70;9.80;;;;;;;-128.00;-1.00;-1.00;102343;1262;1004957;-77
2023/08/07 02:34:16;;;;;;;10.10;9.20;;;;;;;-128.00;-1.00;-1.00;102391;1257;1004349;-79
2023/08/07 02:36:44;;;;;;;9.80;8.90;;;;;;;-128.00;-1.00;-1.00;102834;1256;1004628;-79
2023/08/07 02:39:11;;;;;;;13.20;9.40;;;;;;;-128.00;-1.00;-1.00;102485;1260;1004169;-79
2023/08/07 02:41:38;;;;;;;10.20;9.10;;;;;;;-128.00;-1.00;-1.00;101989;1258;1004319;-81
2023/08/07 02:44:06;;;;;;;10.90;9.20;;;;;;;-128.00;-1.00;-1.00;101928;1260;1004233;-81
2023/08/07 02:46:35;;;;;;;10.80;9.80;;;;;;;-128.00;-1.00;-1.00;102052;1257;1004006;-82
2023/08/07 02:49:04;;;;;;;10.50;9.40;;;;;;;-128.00;-1.00;-1.00;102028;1256;1057188;-81
2023/08/07 02:51:32;;;;;;;10.60;9.10;;;;;;;-128.00;-1.00;-1.00;101974;1255;1062636;-81
2023/08/07 02:53:59;;;;;;;11.90;9.40;;;;;;;-128.00;-1.00;-1.00;101865;1260;1003995;-78
2023/08/07 02:56:27;;;;;;;10.20;9.10;;;;;;;-128.00;-1.00;-1.00;101834;1256;1004734;-77
2023/08/07 02:58:54;;;;;;;11.90;10.00;;;;;;;-128.00;-1.00;-1.00;102052;1259;1005298;-79
2023/08/07 03:01:22;;;;;;;10.40;9.40;;;;;;;-128.00;-1.00;-1.00;101974;1257;1004909;-77
2023/08/07 03:03:49;;;;;;;10.40;9.50;;;;;;;-128.00;-1.00;-1.00;101930;1260;1004065;-79
2023/08/07 03:06:17;;;;;;;12.30;10.10;;;;;;;-128.00;-1.00;-1.00;101986;1258;1004448;-79
2023/08/07 03:08:44;;;;;;;11.30;10.20;;;;;;;-128.00;-1.00;-1.00;101989;1260;1005327;-78
2023/08/07 03:11:11;;;;;;;17.70;10.80;;;;;;;-128.00;-1.00;-1.00;102324;1255;1003762;-77
2023/08/07 03:13:39;;;;;;;13.60;9.70;;;;;;;-128.00;-1.00;-1.00;102537;1257;1004327;-78
2023/08/07 03:16:07;;;;;;;10.50;9.30;;;;;;;-128.00;-1.00;-1.00;102102;1256;1004636;-76
2023/08/07 03:18:35;;;;;;;11.10;9.70;;;;;;;-128.00;-1.00;-1.00;102867;1256;1004655;-80
2023/08/07 03:21:02;;;;;;;12.40;9.30;;;;;;;-128.00;-1.00;-1.00;102590;1257;1004093;-79
2023/08/07 03:23:30;;;;;;;13.40;9.90;;;;;;;-128.00;-1.00;-1.00;102336;1262;1005586;-79
2023/08/07 03:26:07;;;;;;;11.30;9.90;;;;;;;-128.00;-1.00;-1.00;103210;1256;1058764;-80
2023/08/07 03:28:48;;;;;;;12.10;9.70;;;;;;;-128.00;-1.00;-1.00;104393;1256;1060117;-79
2023/08/07 03:31:17;;;;;;;13.10;10.00;;;;;;;-128.00;-1.00;-1.00;104637;1255;1046837;-76
2023/08/07 03:33:45;;;;;;;11.30;10.30;;;;;;;-128.00;-1.00;-1.00;105111;1256;1004393;-79
2023/08/07 03:36:13;;;;;;;11.50;9.90;;;;;;;-128.00;-1.00;-1.00;103804;1255;1005345;-77
2023/08/07 03:38:41;;;;;;;12.10;10.30;;;;;;;-128.00;-1.00;-1.00;104148;1257;1004722;-80
2023/08/07 03:41:08;;;;;;;10.50;9.40;;;;;;;-128.00;-1.00;-1.00;104102;1256;1003879;-81
2023/08/07 03:43:37;;;;;;;13.10;9.70;;;;;;;-128.00;-1.00;-1.00;103330;1257;1004089;-79
2023/08/07 03:46:04;;;;;;;10.70;9.50;;;;;;;-128.00;-1.00;-1.00;102979;1257;1004683;-79
2023/08/07 03:48:32;;;;;;;10.60;9.60;;;;;;;-128.00;-1.00;-1.00;102263;1256;1007607;-81
2023/08/07 03:51:05;;;;;;;9.70;8.70;;;;;;;-128.00;-1.00;-1.00;102411;1257;1060153;-80
2023/08/07 03:53:39;;;;;;;11.00;9.10;;;;;;;-128.00;-1.00;-1.00;102947;1257;1058422;-78
2023/08/07 03:56:06;;;;;;;11.20;9.80;;;;;;;-128.00;-1.00;-1.00;102721;1256;1049497;-80
2023/08/07 03:58:34;;;;;;;12.10;10.20;;;;;;;-128.00;-1.00;-1.00;102286;1256;1005476;-79
2023/08/07 04:01:02;;;;;;;11.80;9.70;;;;;;;-128.00;-1.00;-1.00;101975;1256;1006391;-80
2023/08/07 04:03:31;;;;;;;14.50;9.20;;;;;;;-128.00;-1.00;-1.00;102069;1257;1059126;-82
2023/08/07 04:06:00;;;;;;;13.30;11.00;;;;;;;-128.00;-1.00;-1.00;101980;1262;1007329;-82
2023/08/07 04:08:28;;;;;;;10.90;9.80;;;;;;;-128.00;-1.00;-1.00;101937;1262;1047380;-83
2023/08/07 04:11:02;;;;;;;10.70;9.80;;;;;;;-128.00;-1.00;-1.00;101946;1256;1003950;-79
2023/08/07 04:13:30;;;;;;;12.00;10.60;;;;;;;-128.00;-1.00;-1.00;101867;1261;1060266;-79
2023/08/07 04:15:58;;;;;;;16.30;10.70;;;;;;;-128.00;-1.00;-1.00;101592;1257;1005321;-79
2023/08/07 04:18:26;;;;;;;11.10;10.10;;;;;;;-128.00;-1.00;-1.00;101891;1260;1005150;-79
2023/08/07 04:20:54;;;;;;;11.60;9.90;;;;;;;-128.00;-1.00;-1.00;102027;1261;1004484;-78
2023/08/07 04:23:22;;;;;;;11.60;9.00;;;;;;;-128.00;-1.00;-1.00;102068;1255;1003632;-78
2023/08/07 04:25:50;;;;;;;13.20;9.70;;;;;;;-128.00;-1.00;-1.00;101922;1257;1004647;-77
2023/08/07 04:28:18;;;;;;;14.70;10.00;;;;;;;-128.00;-1.00;-1.00;102253;1259;1004651;-79
2023/08/07 04:30:48;;;;;;;13.40;10.80;;;;;;;-128.00;-1.00;-1.00;101669;1256;1004685;-79
2023/08/07 04:33:16;;;;;;;13.20;10.20;;;;;;;-128.00;-1.00;-1.00;101936;1257;1046873;-79
2023/08/07 04:35:43;;;;;;;13.40;10.60;;;;;;;-128.00;-1.00;-1.00;102228;1257;1004591;-79
2023/08/07 04:38:10;;;;;;;11.60;10.50;;;;;;;-128.00;-1.00;-1.00;102703;1260;1004766;-77
2023/08/07 04:40:39;;;;;;;10.80;9.70;;;;;;;-128.00;-1.00;-1.00;103126;1259;1004974;-78
2023/08/07 04:43:06;;;;;;;12.70;10.90;;;;;;;-128.00;-1.00;-1.00;101937;1257;1004362;-79
2023/08/07 04:45:33;;;;;;;11.90;10.50;;;;;;;-128.00;-1.00;-1.00;102046;1256;1004055;-77
2023/08/07 04:48:04;;;;;;;12.80;10.50;;;;;;;-128.00;-1.00;-1.00;102131;1256;1049793;-76
2023/08/07 04:50:31;;;;;;;12.20;11.10;;;;;;;-128.00;-1.00;-1.00;102067;1262;1004327;-77
2023/08/07 04:52:59;;;;;;;14.40;10.90;;;;;;;-128.00;-1.00;-1.00;102405;1259;1004498;-77
2023/08/07 04:55:26;;;;;;;12.40;11.20;;;;;;;-128.00;-1.00;-1.00;102382;1256;1005195;-77
2023/08/07 04:57:56;;;;;;;14.60;11.70;;;;;;;-128.00;-1.00;-1.00;103460;1255;1004415;-75
2023/08/07 05:00:24;;;;;;;11.60;10.40;;;;;;;-128.00;-1.00;-1.00;104172;1255;1047543;-76
2023/08/07 05:02:52;;;;;;;14.20;10.60;;;;;;;-128.00;-1.00;-1.00;103964;1255;1004503;-78
2023/08/07 05:05:21;;;;;;;16.50;11.80;;;;;;;-128.00;-1.00;-1.00;102571;1257;1005114;-76
2023/08/07 05:07:48;;;;;;;13.20;10.80;;;;;;;-128.00;-1.00;-1.00;102204;1256;1062123;-79
2023/08/07 05:10:16;;;;;;;11.90;10.70;;;;;;;-128.00;-1.00;-1.00;102017;1256;1004808;-77
2023/08/07 05:12:43;;;;;;;14.90;11.30;;;;;;;-128.00;-1.00;-1.00;102128;1257;1006003;-75
2023/08/07 05:15:10;;;;;;;12.60;11.20;;;;;;;-128.00;-1.00;-1.00;102011;1255;1004272;-77
2023/08/07 05:17:38;;;;;;;13.70;10.70;;;;;;;-128.00;-1.00;-1.00;102130;1257;1004628;-77
2023/08/07 05:20:06;;;;;;;12.50;11.30;;;;;;;-128.00;-1.00;-1.00;102020;1256;1005278;-77
2023/08/07 05:22:34;;;;;;;16.10;11.30;;;;;;;-128.00;-1.00;-1.00;102324;1255;1003532;-78
2023/08/07 05:25:01;;;;;;;14.30;11.90;;;;;;;-128.00;-1.00;-1.00;102239;1257;1005364;-79
2023/08/07 05:27:29;;;;;;;11.60;10.30;;;;;;;-128.00;-1.00;-1.00;102934;1259;1004929;-77
2023/08/07 05:29:56;;;;;;;13.70;11.90;;;;;;;-128.00;-1.00;-1.00;102911;1260;1006212;-79
2023/08/07 05:32:23;;;;;;;12.80;10.60;;;;;;;-128.00;-1.00;-1.00;102004;1256;1004764;-80
2023/08/07 05:34:51;;;;;;;14.70;11.60;;;;;;;-128.00;-1.00;-1.00;101966;1259;1006507;-72
2023/08/07 05:37:18;;;;;;;12.40;11.10;;;;;;;-128.00;-1.00;-1.00;101808;1258;1004108;-73
2023/08/07 05:39:46;;;;;;;15.10;11.10;;;;;;;-128.00;-1.00;-1.00;102377;1259;1004386;-74
2023/08/07 05:42:13;;;;;;;12.30;10.60;;;;;;;-128.00;-1.00;-1.00;102333;1259;1005512;-73
2023/08/07 05:44:41;;;;;;;13.20;10.80;;;;;;;-128.00;-1.00;-1.00;101497;1259;1003940;-73
2023/08/07 05:47:08;;;;;;;13.30;11.00;;;;;;;-128.00;-1.00;-1.00;101531;1257;1005271;-74
2023/08/07 05:49:36;;;;;;;16.90;10.80;;;;;;;-128.00;-1.00;-1.00;101553;1259;1003898;-74
2023/08/07 05:52:04;;;;;;;15.20;11.70;;;;;;;-128.00;-1.00;-1.00;101609;1259;1005636;-75
2023/08/07 05:54:31;;;;;;;15.90;10.90;;;;;;;-128.00;-1.00;-1.00;101606;1257;1003713;-74
2023/08/07 05:56:59;;;;;;;15.50;10.60;;;;;;;-128.00;-1.00;-1.00;101590;1257;1005369;-74
2023/08/07 05:59:26;;;;;;;13.60;11.00;;;;;;;-128.00;-1.00;-1.00;101536;1260;1005223;-73
2023/08/07 06:01:54;;;;;;;14.80;10.60;;;;;;;-128.00;-1.00;-1.00;101486;1261;1004371;-74
2023/08/07 06:04:26;;;;;;;13.10;10.50;;;;;;;-128.00;-1.00;-1.00;101648;1262;1060914;-74
2023/08/07 06:06:53;;;;;;;19.50;9.90;;;;;;;-128.00;-1.00;-1.00;101478;1256;1004940;-73
2023/08/07 06:09:21;;;;;;;14.30;9.70;;;;;;;-128.00;-1.00;-1.00;101532;1257;1005078;-74
2023/08/07 06:11:49;;;;;;;12.80;9.90;;;;;;;-128.00;-1.00;-1.00;101673;1257;1004311;-73
2023/08/07 06:14:16;;;;;;;10.80;9.70;;;;;;;-128.00;-1.00;-1.00;101570;1259;1004750;-72
2023/08/07 06:16:44;;;;;;;11.90;9.00;;;;;;;-128.00;-1.00;-1.00;101540;1259;1004351;-74
2023/08/07 06:19:11;;;;;;;10.80;9.50;;;;;;;-128.00;-1.00;-1.00;101745;1257;1003967;-74
2023/08/07 06:21:57;;;;;;;12.60;9.20;;;;;;;-128.00;-1.00;-1.00;101794;1259;1059899;-74
2023/08/07 06:24:25;;;;;;;11.40;9.70;;;;;;;-128.00;-1.00;-1.00;101794;1260;1049851;-74
2023/08/07 06:26:53;;;;;;;12.50;9.60;;;;;;;-128.00;-1.00;-1.00;101656;1260;1003806;-74
2023/08/07 06:29:20;;;;;;;11.10;10.00;;;;;;;-128.00;-1.00;-1.00;101571;1257;1003892;-77
2023/08/07 06:31:48;;;;;;;12.20;10.00;;;;;;;-128.00;-1.00;-1.00;102120;1257;1004863;-78
2023/08/07 06:34:15;;;;;;;14.10;10.50;;;;;;;-128.00;-1.00;-1.00;101969;1255;1005105;-79
2023/08/07 06:36:43;;;;;;;10.50;9.00;;;;;;;-128.00;-1.00;-1.00;101872;1260;1003632;-77
2023/08/07 06:39:10;;;;;;;10.50;8.90;;;;;;;-128.00;-1.00;-1.00;102642;1257;1004752;-77
2023/08/07 06:41:38;;;;;;;10.20;7.80;;;;;;;-128.00;-1.00;-1.00;103333;1257;1005145;-77
2023/08/07 06:44:07;;;;;;;10.50;8.60;;;;;;;-128.00;-1.00;-1.00;103076;1257;1059948;-77
2023/08/07 06:46:34;;;;;;;9.50;8.40;;;;;;;-128.00;-1.00;-1.00;101916;1257;1004453;-77
2023/08/07 06:49:01;;;;;;;17.80;9.30;;;;;;;-128.00;-1.00;-1.00;101893;1260;1003482;-77
2023/08/07 06:51:29;;;;;;;12.20;9.50;;;;;;;-128.00;-1.00;-1.00;101905;1257;1004050;-77
2023/08/07 06:53:56;;;;;;;10.20;8.60;;;;;;;-128.00;-1.00;-1.00;102063;1257;1004585;-77
2023/08/07 06:56:24;;;;;;;11.20;8.00;;;;;;;-128.00;-1.00;-1.00;101992;1257;1003807;-77
2023/08/07 06:58:51;;;;;;;11.40;7.40;;;;;;;-128.00;-1.00;-1.00;101873;1260;1005995;-77
2023/08/07 07:01:18;;;;;;;9.60;8.50;;;;;;;-128.00;-1.00;-1.00;102080;1257;1004624;-76
2023/08/07 07:03:46;;;;;;;11.00;8.30;;;;;;;-128.00;-1.00;-1.00;102037;1256;1004924;-76
2023/08/07 07:06:14;;;;;;;10.60;8.00;;;;;;;-128.00;-1.00;-1.00;101802;1256;1065831;-76
2023/08/07 07:08:42;;;;;;;11.40;8.10;;;;;;;-128.00;-1.00;-1.00;102317;1257;1004853;-77
2023/08/07 07:11:10;;;;;;;11.00;8.70;;;;;;;-128.00;-1.00;-1.00;102029;1256;1004989;-76
2023/08/07 07:13:37;;;;;;;11.30;8.80;;;;;;;-128.00;-1.00;-1.00;101770;1257;1005377;-75
2023/08/07 07:16:05;;;;;;;13.80;9.60;;;;;;;-128.00;-1.00;-1.00;102262;1257;1005059;-77
2023/08/07 07:18:33;;;;;;;15.30;8.90;;;;;;;-128.00;-1.00;-1.00;102268;1255;1005512;-78
2023/08/07 07:21:00;;;;;;;10.10;8.70;;;;;;;-128.00;-1.00;-1.00;102081;1259;1004404;-76
2023/08/07 07:23:28;;;;;;;12.80;9.00;;;;;;;-128.00;-1.00;-1.00;101986;1260;1005055;-77
2023/08/07 07:25:57;;;;;;;12.10;9.80;;;;;;;-128.00;-1.00;-1.00;102050;1259;1007688;-77
2023/08/07 07:28:24;;;;;;;16.10;10.30;;;;;;;-128.00;-1.00;-1.00;102172;1256;1047627;-77
2023/08/07 07:30:52;;;;;;;13.20;9.70;;;;;;;-128.00;-1.00;-1.00;102025;1256;1004727;-77
2023/08/07 07:33:20;;;;;;;9.60;8.80;;;;;;;-128.00;-1.00;-1.00;102220;1259;1007492;-77
2023/08/07 07:35:47;;;;;;;14.90;10.10;;;;;;;-128.00;-1.00;-1.00;101721;1256;1005102;-77
2023/08/07 07:38:17;;;;;;;10.10;9.10;;;;;;;-128.00;-1.00;-1.00;102959;1259;1004508;-78
2023/08/07 07:40:45;;;;;;;14.10;9.70;;;;;;;-128.00;-1.00;-1.00;103900;1255;1047478;-76
2023/08/07 07:43:12;;;;;;;10.80;8.80;;;;;;;-128.00;-1.00;-1.00;105234;1257;1004178;-76
2023/08/07 07:45:40;;;;;;;10.00;9.00;;;;;;;-128.00;-1.00;-1.00;103939;1255;1004631;-78
2023/08/07 07:48:08;;;;;;;11.60;8.80;;;;;;;-128.00;-1.00;-1.00;102665;1256;1003484;-78
2023/08/07 07:50:35;;;;;;;12.10;9.60;;;;;;;-128.00;-1.00;-1.00;102170;1257;1005179;-77
2023/08/07 07:53:02;;;;;;;10.20;9.20;;;;;;;-128.00;-1.00;-1.00;102235;1256;1005040;-78
2023/08/07 07:55:30;;;;;;;17.00;9.10;;;;;;;-128.00;-1.00;-1.00;102412;1257;1004041;-77
2023/08/07 07:57:57;;;;;;;15.00;9.60;;;;;;;-128.00;-1.00;-1.00;102656;1259;1004723;-77
2023/08/07 08:00:28;;;;;;;11.80;9.80;;;;;;;-128.00;-1.00;-1.00;102438;1260;1004483;-77
2023/08/07 08:02:55;;;;;;;10.70;9.70;;;;;;;-128.00;-1.00;-1.00;102045;1256;1047315;-78
2023/08/07 08:05:23;;;;;;;11.20;9.20;;;;;;;-128.00;-1.00;-1.00;102097;1255;1005464;-78
2023/08/07 08:07:50;;;;;;;13.10;10.00;;;;;;;-128.00;-1.00;-1.00;102061;1259;1004553;-78
2023/08/07 08:10:18;;;;;;;11.40;9.70;;;;;;;-128.00;-1.00;-1.00;102013;1258;1005731;-78
2023/08/07 08:12:45;;;;;;;12.90;10.10;;;;;;;-128.00;-1.00;-1.00;101617;1257;1003957;-78
2023/08/07 08:15:12;;;;;;;10.70;9.60;;;;;;;-128.00;-1.00;-1.00;102051;1256;1004727;-78
2023/08/07 08:17:40;;;;;;;11.40;9.70;;;;;;;-128.00;-1.00;-1.00;102068;1259;1004107;-78
2023/08/07 08:20:08;;;;;;;12.90;9.90;;;;;;;-128.00;-1.00;-1.00;101907;1256;1004687;-80
2023/08/07 08:22:36;;;;;;;12.70;8.80;;;;;;;-128.00;-1.00;-1.00;102058;1261;1004748;-78
2023/08/07 08:25:04;;;;;;;13.80;9.60;;;;;;;-128.00;-1.00;-1.00;102156;1256;1006364;-79
2023/08/07 08:27:32;;;;;;;11.60;10.00;;;;;;;-128.00;-1.00;-1.00;102137;1257;1048043;-78
2023/08/07 08:30:00;;;;;;;11.40;9.40;;;;;;;-128.00;-1.00;-1.00;101948;1257;1004623;-78
2023/08/07 08:32:27;;;;;;;12.10;9.40;;;;;;;-128.00;-1.00;-1.00;102120;1259;1004629;-78
2023/08/07 08:34:55;;;;;;;11.80;9.20;;;;;;;-128.00;-1.00;-1.00;102084;1257;1004406;-80
2023/08/07 08:37:22;;;;;;;12.80;8.40;;;;;;;-128.00;-1.00;-1.00;101911;1255;1004582;-79
2023/08/07 08:39:50;;;;;;;15.80;8.30;;;;;;;-128.00;-1.00;-1.00;102073;1257;1004578;-79
2023/08/07 08:42:18;;;;;;;11.10;7.90;;;;;;;-128.00;-1.00;-1.00;104141;1257;1004414;-77
2023/08/07 08:47:38;;;;;;;11.90;9.70;;;;;;;27.60;68.39;97914.06;104427;1292;600090;-79
2023/08/07 08:50:11;;;;;;;10.00;8.90;;;;;;;-34.68;40.69;58750.51;105411;1266;1003320;-78
2023/08/07 08:52:42;;;;;;;13.50;9.50;;;;;;;-128.00;-1.00;-1.00;102368;1264;1047247;-77
2023/08/07 08:55:10;;;;;;;11.20;9.50;;;;;;;-128.00;-1.00;-1.00;102087;1263;1059858;-78
2023/08/07 08:57:39;;;;;;;9.80;8.70;;;;;;;-128.00;-1.00;-1.00;102676;1262;1057143;-80
2023/08/07 09:00:17;;;;;;;9.50;8.70;;;;;;;-128.00;-1.00;-1.00;104173;1265;1059952;-79
2023/08/07 09:02:45;;;;;;;10.50;8.20;;;;;;;-128.00;-1.00;-1.00;103960;1259;1046850;-78
2023/08/07 09:05:14;;;;;;;9.30;8.50;;;;;;;-128.00;-1.00;-1.00;103372;1262;1005350;-78
2023/08/07 09:07:41;;;;;;;9.80;8.90;;;;;;;-128.00;-1.00;-1.00;102451;1258;1061862;-79
2023/08/07 09:10:13;;;;;;;8.80;8.00;;;;;;;-128.00;-1.00;-1.00;102290;1259;1003625;-80
2023/08/07 09:12:42;;;;;;;9.40;8.50;;;;;;;-128.00;-1.00;-1.00;102403;1258;1062686;-80
2023/08/07 09:15:10;;;;;;;22.70;12.30;;;;;;;-128.00;-1.00;-1.00;102417;1258;1047771;-79
2023/08/07 09:17:39;;;;;;;18.40;13.30;;;;;;;-128.00;-1.00;-1.00;102265;1264;1046724;-76
2023/08/07 09:20:11;;;;;;;17.60;15.50;;;;;;;-128.00;-1.00;-1.00;102326;1260;1063065;-76
2023/08/07 09:22:42;;;;;;;21.60;17.60;;;;;;;-128.00;-1.00;-1.00;101797;1264;1057858;-76
2023/08/07 09:25:10;;;;;;;21.50;18.80;;;;;;;-128.00;-1.00;-1.00;101858;1259;1060602;-77
2023/08/07 09:27:38;;;;;;;21.70;19.30;;;;;;;-128.00;-1.00;-1.00;102110;1259;1003927;-79
2023/08/07 09:30:09;;;;;;;23.20;20.80;;;;;;;-128.00;-1.00;-1.00;101884;1263;1005186;-78
2023/08/07 09:32:38;;;;;;;23.60;21.10;;;;;;;-128.00;-1.00;-1.00;101998;1259;1059792;-77
2023/08/07 09:35:06;;;;;;;23.60;19.60;;;;;;;-128.00;-1.00;-1.00;101892;1264;1057343;-78
2023/08/07 09:37:35;;;;;;;16.60;14.90;;;;;;;-128.00;-1.00;-1.00;101902;1257;1004892;-78
2023/08/07 09:40:03;;;;;;;15.10;13.50;;;;;;;-128.00;-1.00;-1.00;101918;1259;1048554;-79
2023/08/07 09:42:33;;;;;;;14.70;12.20;;;;;;;-128.00;-1.00;-1.00;102606;1258;1048128;-79
2023/08/07 09:45:00;;;;;;;13.60;12.20;;;;;;;-128.00;-1.00;-1.00;103822;1260;1004090;-78
2023/08/07 09:47:28;;;;;;;13.30;11.60;;;;;;;-128.00;-1.00;-1.00;103389;1257;1004305;-79
2023/08/07 09:49:56;;;;;;;15.50;10.90;;;;;;;-128.00;-1.00;-1.00;102042;1258;1004428;-78
2023/08/07 09:52:24;;;;;;;13.30;11.60;;;;;;;-128.00;-1.00;-1.00;101998;1257;1003843;-76
2023/08/07 09:54:55;;;;;;;14.70;11.80;;;;;;;-128.00;-1.00;-1.00;101943;1256;1004602;-77
2023/08/07 09:57:23;;;;;;;13.60;11.00;;;;;;;-128.00;-1.00;-1.00;102203;1260;1059186;-77
2023/08/07 09:59:51;;;;;;;12.00;10.90;;;;;;;-128.00;-1.00;-1.00;102055;1256;1004642;-77
2023/08/07 10:02:20;;;;;;;13.90;11.50;;;;;;;-128.00;-1.00;-1.00;101932;1257;1005140;-75
2023/08/07 10:04:48;;;;;;;12.60;11.40;;;;;;;-128.00;-1.00;-1.00;102013;1262;1049508;-75
2023/08/07 10:07:16;;;;;;;11.50;10.40;;;;;;;-128.00;-1.00;-1.00;101969;1261;1004690;-77
2023/08/07 10:09:43;;;;;;;11.70;10.70;;;;;;;-128.00;-1.00;-1.00;101930;1262;1004109;-78
2023/08/07 10:12:11;;;;;;;10.70;9.70;;;;;;;-128.00;-1.00;-1.00;102049;1256;1005201;-77
2023/08/07 10:14:39;;;;;;;12.40;10.10;;;;;;;-128.00;-1.00;-1.00;102063;1256;1005247;-77
2023/08/07 10:17:07;;;;;;;10.20;9.20;;;;;;;-128.00;-1.00;-1.00;102275;1258;1004645;-77
2023/08/07 10:19:34;;;;;;;10.00;9.10;;;;;;;-128.00;-1.00;-1.00;102773;1259;1004178;-76
2023/08/07 10:22:02;;;;;;;12.70;9.40;;;;;;;-128.00;-1.00;-1.00;102634;1256;1005015;-76
2023/08/07 10:24:29;;;;;;;13.70;10.10;;;;;;;-128.00;-1.00;-1.00;102371;1254;1003898;-76
2023/08/07 10:26:57;;;;;;;9.40;8.50;;;;;;;-128.00;-1.00;-1.00;102332;1254;1004293;-76
2023/08/07 10:29:24;;;;;;;11.00;8.90;;;;;;;-128.00;-1.00;-1.00;102069;1260;1005524;-77
2023/08/07 10:31:52;;;;;;;10.80;8.10;;;;;;;-128.00;-1.00;-1.00;102457;1256;1005018;-76
2023/08/07 10:34:21;;;;;;;9.10;8.30;;;;;;;-128.00;-1.00;-1.00;102180;1255;1004859;-75
2023/08/07 10:36:49;;;;;;;9.30;8.20;;;;;;;-128.00;-1.00;-1.00;102043;1253;1060739;-75
2023/08/07 10:39:16;;;;;;;9.60;8.70;;;;;;;-128.00;-1.00;-1.00;102059;1259;1007179;-75
2023/08/07 10:41:54;;;;;;;9.30;8.40;;;;;;;-128.00;-1.00;-1.00;102180;1253;1003933;-75
2023/08/07 10:44:26;;;;;;;10.00;9.00;;;;;;;-128.00;-1.00;-1.00;102913;1259;1046428;-75
2023/08/07 10:46:55;;;;;;;8.80;7.80;;;;;;;-128.00;-1.00;-1.00;103481;1253;1062033;-76
2023/08/07 10:49:35;;;;;;;10.80;8.00;;;;;;;-128.00;-1.00;-1.00;103182;1253;1058693;-74
2023/08/07 10:52:17;;;;;;;8.90;7.70;;;;;;;-128.00;-1.00;-1.00;102397;1253;1060493;-75
2023/08/07 10:54:46;;;;;;;9.10;8.20;;;;;;;-128.00;-1.00;-1.00;103614;1254;1049126;-76
2023/08/07 10:57:18;;;;;;;8.80;7.10;;;;;;;-128.00;-1.00;-1.00;103460;1254;1048233;-77
2023/08/07 11:00:01;;;;;;;8.60;7.70;;;;;;;-128.00;-1.00;-1.00;102353;1253;1061323;-75
2023/08/07 11:02:29;;;;;;;8.10;6.90;;;;;;;-128.00;-1.00;-1.00;102238;1257;1057408;-79
2023/08/07 11:04:57;;;;;;;7.00;6.30;;;;;;;-128.00;-1.00;-1.00;101996;1253;1059864;-78
2023/08/07 11:07:26;;;;;;;6.90;6.40;;;;;;;-128.00;-1.00;-1.00;102227;1253;1004681;-76
2023/08/07 11:09:54;;;;;;;7.50;6.40;;;;;;;-128.00;-1.00;-1.00;102380;1254;1049054;-77
2023/08/07 11:12:27;;;;;;;9.50;6.50;;;;;;;-128.00;-1.00;-1.00;102303;1255;1003854;-77
2023/08/07 11:14:58;;;;;;;6.70;5.40;;;;;;;-128.00;-1.00;-1.00;102279;1253;1057252;-76
2023/08/07 11:17:28;;;;;;;6.50;5.70;;;;;;;-128.00;-1.00;-1.00;102140;1256;1060162;-77
2023/08/07 11:19:56;;;;;;;5.60;5.10;;;;;;;-128.00;-1.00;-1.00;102284;1253;1049360;-77